createdAt,value
2019-05-05T07:54:23.442Z,97726.98
2019-05-05T07:56:46.881Z,97736.13
2019-05-05T07:59:10.682Z,97744.02
2019-05-05T08:01:34.458Z,97750.77
2019-05-05T08:03:58.344Z,97739.19
2019-05-05T08:06:23.733Z,97739.52
2019-05-05T08:08:47.779Z,97750.60
2019-05-05T08:11:11.446Z,97741.55
2019-05-05T08:13:35.503Z,97752.44
2019-05-05T08:16:00.873Z,97750.60
2019-05-05T08:18:29.185Z,97749.51
2019-05-05T08:20:57.511Z,97747.20
2019-05-05T08:23:32.313Z,97739.00
2019-05-05T08:26:13.718Z,97750.49
2019-05-05T08:28:39.031Z,97748.84
2019-05-05T08:31:14.446Z,97749.20
2019-05-05T08:33:38.357Z,97765.28
2019-05-05T08:36:01.998Z,97770.83
2019-05-05T08:38:25.827Z,97760.20
2019-05-05T08:40:51.599Z,97759.22
2019-05-05T08:43:15.273Z,97762.35
2019-05-05T08:45:38.903Z,97767.64
2019-05-05T08:48:04.947Z,97768.45
2019-05-05T08:50:28.171Z,97767.24
2019-05-05T08:52:53.720Z,97764.94
2019-05-05T08:55:17.288Z,97769.15
2019-05-05T08:57:40.922Z,97773.38
2019-05-05T09:00:07.985Z,97768.05
2019-05-05T09:02:33.964Z,97770.94
2019-05-05T09:04:57.166Z,97775.70
2019-05-05T09:07:20.876Z,97771.80
2019-05-05T09:09:45.522Z,97784.53
2019-05-05T09:12:11.048Z,97778.36
2019-05-05T09:14:34.842Z,97796.27
2019-05-05T09:16:58.385Z,97786.71
2019-05-05T09:19:24.039Z,97794.61
2019-05-05T09:21:48.637Z,97793.63
2019-05-05T09:24:30.543Z,97795.39
2019-05-05T09:27:14.201Z,97792.95
2019-05-05T09:29:43.805Z,97790.14
2019-05-05T09:32:08.441Z,97786.98
2019-05-05T09:34:34.075Z,97793.70
2019-05-05T09:36:59.683Z,97797.23
2019-05-05T09:39:24.844Z,97789.48
2019-05-05T09:41:49.108Z,97787.20
2019-05-05T09:44:13.691Z,97785.06
2019-05-05T09:46:39.670Z,97787.91
2019-05-05T09:49:05.365Z,97792.83
2019-05-05T09:51:29.541Z,97792.14
2019-05-05T09:53:55.071Z,97784.81
2019-05-05T09:56:19.788Z,97782.45
2019-05-05T09:58:44.782Z,97779.92
2019-05-05T10:01:09.319Z,97768.69
2019-05-05T10:03:34.107Z,97768.09
2019-05-05T10:05:58.326Z,97773.30
2019-05-05T10:08:23.629Z,97777.45
2019-05-05T10:10:48.734Z,97775.56
2019-05-05T10:13:14.884Z,97771.01
2019-05-05T10:15:39.067Z,97764.03
2019-05-05T10:18:03.593Z,97763.09
2019-05-05T10:20:28.239Z,97773.48
2019-05-05T10:22:54.258Z,97767.66
2019-05-05T10:25:36.304Z,97758.84
2019-05-05T10:28:00.529Z,97755.97
2019-05-05T10:30:24.716Z,97756.88
2019-05-05T10:32:49.246Z,97763.97
2019-05-05T10:35:14.369Z,97766.75
2019-05-05T10:37:41.198Z,97774.44
2019-05-05T10:40:07.624Z,97770.14
2019-05-05T10:42:53.938Z,97769.25
2019-05-05T10:45:20.276Z,97769.14
2019-05-05T10:47:45.708Z,97764.95
2019-05-05T10:50:09.896Z,97756.03
2019-05-05T10:52:34.120Z,97754.51
2019-05-05T10:54:58.389Z,97760.67
2019-05-05T10:57:23.661Z,97757.77
2019-05-05T10:59:47.935Z,97756.35
2019-05-05T11:02:14.044Z,97768.59
2019-05-05T11:04:38.492Z,97763.16
2019-05-05T11:07:04.166Z,97770.72
2019-05-05T11:09:28.883Z,97779.02
2019-05-05T11:11:55.406Z,97779.41
2019-05-05T11:14:21.099Z,97776.02
2019-05-05T11:16:45.436Z,97781.36
2019-05-05T11:19:13.636Z,97774.78
2019-05-05T11:21:39.280Z,97771.60
2019-05-05T11:24:03.485Z,97773.43
2019-05-05T11:26:27.637Z,97777.83
2019-05-05T11:28:53.848Z,97778.94
2019-05-05T11:31:19.596Z,97772.03
2019-05-05T11:33:45.507Z,97775.73
2019-05-05T11:36:13.493Z,97769.58
2019-05-05T11:38:41.329Z,97773.20
2019-05-05T11:41:04.949Z,97767.02
2019-05-05T11:43:29.511Z,97754.52
2019-05-05T11:45:54.446Z,97756.48
2019-05-05T11:48:18.964Z,97763.38
2019-05-05T11:50:43.650Z,97777.13
2019-05-05T11:53:09.476Z,97770.39
2019-05-05T11:55:34.278Z,97779.14
2019-05-05T11:57:58.725Z,97785.42
2019-05-05T12:00:24.147Z,97777.13
2019-05-05T12:02:49.514Z,97790.94
2019-05-05T12:05:16.658Z,97789.76
2019-05-05T12:07:45.828Z,97793.56
2019-05-05T12:10:29.924Z,97786.52
2019-05-05T12:12:54.339Z,97795.54
2019-05-05T12:15:20.160Z,97791.70
2019-05-05T12:17:44.993Z,97790.44
2019-05-05T12:20:10.500Z,97798.37
2019-05-05T12:22:34.887Z,97778.73
2019-05-05T12:24:59.129Z,97783.66
2019-05-05T12:27:27.623Z,97787.66
2019-05-05T12:29:54.435Z,97783.55
2019-05-05T12:32:18.330Z,97778.28
2019-05-05T12:34:44.579Z,97787.12
2019-05-05T12:37:14.252Z,97788.63
2019-05-05T12:39:38.798Z,97790.75
2019-05-05T12:42:04.783Z,97792.09
2019-05-05T12:44:30.545Z,97788.72
2019-05-05T12:47:03.822Z,97787.31
2019-05-05T12:49:28.197Z,97796.45
2019-05-05T12:51:54.073Z,97794.09
2019-05-05T12:54:18.258Z,97801.59
2019-05-05T12:56:44.003Z,97802.56
2019-05-05T12:59:14.571Z,97793.91
2019-05-05T13:01:41.289Z,97799.23
2019-05-05T13:04:06.448Z,97799.05
2019-05-05T13:06:34.393Z,97802.29
2019-05-05T13:08:58.171Z,97805.77
2019-05-05T13:11:23.977Z,97796.97
2019-05-05T13:13:49.787Z,97801.45
2019-05-05T13:35:07.520Z,97801.73
2019-05-05T13:37:33.348Z,97801.73
2019-05-05T13:39:58.956Z,97776.55
2019-05-05T13:42:24.381Z,97782.09
2019-05-05T13:44:53.439Z,97775.14
2019-05-05T13:47:17.734Z,97775.28
2019-05-05T13:49:43.689Z,97764.47
2019-05-05T13:52:08.124Z,97769.18
2019-05-05T13:54:33.518Z,97769.73
2019-05-05T13:56:59.183Z,97776.97
2019-05-05T13:59:25.527Z,97776.53
2019-05-05T14:01:49.343Z,97784.53
2019-05-05T14:04:13.636Z,97778.83
2019-05-05T14:06:37.909Z,97788.94
2019-05-05T14:09:04.280Z,97785.42
2019-05-05T14:11:28.006Z,97790.95
2019-05-05T14:13:52.862Z,97788.03
2019-05-05T14:16:17.315Z,97781.77
2019-05-05T14:18:41.583Z,97782.72
2019-05-05T14:21:05.732Z,97790.37
2019-05-05T14:23:31.265Z,97781.22
2019-05-05T14:25:55.527Z,97784.80
2019-05-05T14:28:19.620Z,97784.05
2019-05-05T14:30:51.351Z,97783.23
2019-05-05T14:33:23.689Z,97789.07
2019-05-05T14:35:53.996Z,97781.16
2019-05-05T14:38:23.967Z,97781.27
2019-05-05T14:40:48.292Z,97787.45
2019-05-05T14:43:13.353Z,97780.31
2019-05-05T14:45:37.968Z,97771.45
2019-05-05T14:48:03.961Z,97774.33
2019-05-05T14:50:27.868Z,97769.77
2019-05-05T14:52:53.487Z,97766.81
2019-05-05T14:55:17.829Z,97761.56
2019-05-05T14:57:43.969Z,97768.37
2019-05-05T15:00:13.668Z,97764.83
2019-05-05T15:02:37.235Z,97765.36
2019-05-05T15:05:14.196Z,97771.22
2019-05-05T15:07:44.439Z,97774.20
2019-05-05T15:10:27.210Z,97771.73
2019-05-05T15:12:53.875Z,97768.40
2019-05-05T15:15:18.203Z,97778.96
2019-05-05T15:17:43.628Z,97789.03
2019-05-05T15:20:09.960Z,97784.59
2019-05-05T15:22:37.279Z,97781.53
2019-05-05T15:25:01.372Z,97779.88
2019-05-05T15:27:25.367Z,97777.05
2019-05-05T15:29:49.413Z,97779.58
2019-05-05T15:32:14.924Z,97778.30
2019-05-05T15:34:39.412Z,97782.50
2019-05-05T15:37:04.028Z,97778.78
2019-05-05T15:39:28.247Z,97781.52
2019-05-05T15:41:54.153Z,97772.56
2019-05-05T15:44:20.005Z,97777.88
2019-05-05T15:46:44.341Z,97780.67
2019-05-05T15:49:10.447Z,97776.48
2019-05-05T15:51:34.622Z,97784.38
2019-05-05T15:53:59.183Z,97785.50
2019-05-05T15:56:24.480Z,97784.55
2019-05-05T15:58:48.943Z,97787.56
2019-05-05T16:01:14.306Z,97788.28
2019-05-05T16:03:38.305Z,97792.06
2019-05-05T16:06:08.583Z,97787.17
2019-05-05T16:08:33.988Z,97784.97
2019-05-05T16:10:58.397Z,97782.02
2019-05-05T16:13:22.743Z,97781.80
2019-05-05T16:15:48.592Z,97785.02
2019-05-05T16:18:23.668Z,97784.89
2019-05-05T16:20:49.383Z,97789.39
2019-05-05T16:23:16.841Z,97791.00
2019-05-05T16:25:41.809Z,97792.92
2019-05-05T16:28:06.443Z,97784.69
2019-05-05T16:30:30.807Z,97794.23
2019-05-05T16:32:55.285Z,97788.73
2019-05-05T16:35:23.752Z,97795.23
2019-05-05T16:37:49.635Z,97793.93
2019-05-05T16:40:16.962Z,97791.73
2019-05-05T16:42:41.419Z,97793.70
2019-05-05T16:45:09.241Z,97791.08
2019-05-05T16:47:33.797Z,97787.67
2019-05-05T16:49:57.961Z,97789.60
2019-05-05T16:52:24.013Z,97793.06
2019-05-05T16:54:53.344Z,97801.30
2019-05-05T16:57:31.793Z,97795.76
2019-05-05T16:59:46.998Z,97800.13
2019-05-05T17:02:11.452Z,97794.83
2019-05-05T17:04:36.009Z,97800.49
2019-05-05T17:07:00.208Z,97800.56
2019-05-05T17:09:24.462Z,97799.53
2019-05-05T17:11:51.712Z,97800.28
2019-05-05T17:14:17.318Z,97806.55
2019-05-05T17:16:44.629Z,97803.76
2019-05-05T17:19:16.498Z,97808.22
2019-05-05T17:21:54.597Z,97812.27
2019-05-05T17:24:18.789Z,97808.25
2019-05-05T17:29:27.505Z,97824.42
2019-05-05T17:31:54.260Z,97821.85
2019-05-05T17:34:20.713Z,97827.02
2019-05-05T17:36:45.391Z,97826.96
2019-05-05T17:39:10.576Z,97830.69
2019-05-05T17:41:45.109Z,97835.98
2019-05-05T17:44:10.981Z,97830.29
2019-05-05T17:46:40.108Z,97832.97
2019-05-05T17:49:06.236Z,97839.15
2019-05-05T17:51:36.356Z,97838.69
2019-05-05T17:54:04.145Z,97839.62
2019-05-05T17:56:28.437Z,97840.09
2019-05-05T17:58:53.942Z,97836.06
2019-05-05T18:01:18.229Z,97837.91
2019-05-05T18:03:43.675Z,97840.09
2019-05-05T18:06:19.442Z,97843.02
2019-05-05T18:08:50.756Z,97838.58
2019-05-05T18:11:19.504Z,97843.08
2019-05-05T18:13:57.450Z,97848.94
2019-05-05T18:16:25.367Z,97851.73
2019-05-05T18:18:54.747Z,97852.98
2019-05-05T18:21:18.901Z,97853.61
2019-05-05T18:23:43.854Z,97855.92
2019-05-05T18:26:08.597Z,97861.20
2019-05-05T18:28:34.055Z,97860.88
2019-05-05T18:31:01.168Z,97867.97
2019-05-05T18:33:24.746Z,97862.73
2019-05-05T18:35:50.169Z,97870.61
2019-05-05T18:38:14.688Z,97864.72
2019-05-05T18:40:38.959Z,97863.97
2019-05-05T18:43:05.142Z,97867.04
2019-05-05T18:45:29.561Z,97869.82
2019-05-05T18:47:55.411Z,97873.39
2019-05-05T18:50:19.963Z,97871.06
2019-05-05T18:52:46.950Z,97872.77
2019-05-05T18:55:10.193Z,97872.62
2019-05-05T18:57:36.639Z,97868.27
2019-05-05T19:00:00.801Z,97870.72
2019-05-05T19:02:30.386Z,97875.16
2019-05-05T19:04:58.987Z,97875.61
2019-05-05T19:07:26.259Z,97874.84
2019-05-05T19:09:54.879Z,97877.61
2019-05-05T19:12:21.534Z,97884.23
2019-05-05T19:14:50.695Z,97880.15
2019-05-05T19:17:14.172Z,97878.91
2019-05-05T19:19:39.902Z,97879.98
2019-05-05T19:22:05.685Z,97887.05
2019-05-05T19:24:30.062Z,97884.86
2019-05-05T19:26:56.118Z,97889.63
2019-05-05T19:29:20.317Z,97895.81
2019-05-05T19:31:45.034Z,97902.42
2019-05-05T19:34:09.308Z,97899.02
2019-05-05T19:36:34.303Z,97903.62
2019-05-05T19:38:59.918Z,97899.08
2019-05-05T19:41:27.273Z,97901.28
2019-05-05T19:43:56.010Z,97909.45
2019-05-05T19:46:23.210Z,97908.83
2019-05-05T19:48:47.688Z,97905.20
2019-05-05T19:51:14.929Z,97916.08
2019-05-05T19:53:40.279Z,97910.80
2019-05-05T19:56:04.565Z,97908.12
2019-05-05T19:58:28.825Z,97910.00
2019-05-05T20:00:55.157Z,97907.41
2019-05-05T20:03:20.770Z,97912.27
2019-05-05T20:05:46.264Z,97914.83
2019-05-05T20:08:10.435Z,97922.89
2019-05-05T20:10:34.640Z,97918.84
2019-05-05T20:13:00.320Z,97916.06
2019-05-05T20:15:34.283Z,97927.45
2019-05-05T20:18:00.684Z,97921.91
2019-05-05T20:20:26.651Z,97918.39
2019-05-05T20:22:51.111Z,97921.27
2019-05-05T20:25:15.913Z,97921.66
2019-05-05T20:27:40.366Z,97927.41
2019-05-05T20:30:08.234Z,97916.71
2019-05-05T20:32:34.207Z,97917.95
2019-05-05T20:35:06.183Z,97921.59
2019-05-05T20:37:44.141Z,97917.34
2019-05-05T20:40:10.133Z,97915.33
2019-05-05T20:42:34.384Z,97919.82
2019-05-05T20:44:58.760Z,97921.48
2019-05-05T20:47:23.723Z,97918.28
2019-05-05T20:49:51.032Z,97919.53
2019-05-05T20:52:15.599Z,97916.02
2019-05-05T20:54:40.797Z,97920.19
2019-05-05T20:57:06.317Z,97924.31
2019-05-05T20:59:31.338Z,97926.14
2019-05-05T21:01:57.088Z,97916.88
2019-05-05T21:04:22.173Z,97915.86
2019-05-05T21:06:46.531Z,97918.03
2019-05-05T21:09:10.741Z,97916.74
2019-05-05T21:11:34.715Z,97920.30
2019-05-05T21:13:59.028Z,97922.62
2019-05-05T21:16:23.737Z,97917.69
2019-05-05T21:18:49.065Z,97913.85
2019-05-05T21:21:14.605Z,97916.58
2019-05-05T21:23:41.023Z,97911.55
2019-05-05T21:26:09.727Z,97920.28
2019-05-05T21:28:34.441Z,97913.23
2019-05-05T21:30:59.074Z,97918.70
2019-05-05T21:33:24.871Z,97912.94
2019-05-05T21:35:49.105Z,97906.74
2019-05-05T21:38:14.282Z,97917.80
2019-05-05T21:40:39.731Z,97924.62
2019-05-05T21:43:05.174Z,97930.08
2019-05-05T21:45:29.505Z,97925.33
2019-05-05T21:47:55.105Z,97928.13
2019-05-05T21:50:21.013Z,97920.52
2019-05-05T21:52:53.693Z,97926.98
2019-05-05T21:55:19.572Z,97929.58
2019-05-05T21:57:46.961Z,97920.36
2019-05-05T22:00:13.922Z,97926.05
2019-05-05T22:02:38.827Z,97923.73
2019-05-05T22:05:04.044Z,97916.91
2019-05-05T22:07:28.448Z,97910.69
2019-05-05T22:09:54.529Z,97913.02
2019-05-05T22:12:19.143Z,97918.78
2019-05-05T22:14:43.921Z,97914.29
2019-05-05T22:17:08.229Z,97918.03
2019-05-05T22:19:44.529Z,97913.03
2019-05-05T22:22:10.298Z,97919.15
2019-05-05T22:24:35.766Z,97918.20
2019-05-05T22:27:00.258Z,97919.31
2019-05-05T22:29:25.101Z,97914.22
2019-05-05T22:31:49.452Z,97915.84
2019-05-05T22:34:15.403Z,97906.42
2019-05-05T22:36:41.113Z,97908.68
2019-05-05T22:39:08.086Z,97902.29
2019-05-05T22:41:33.983Z,97910.43
2019-05-05T22:43:58.050Z,97907.94
2019-05-05T22:46:23.784Z,97917.00
2019-05-05T22:48:48.118Z,97911.80
2019-05-05T22:51:14.434Z,97911.81
2019-05-05T22:53:39.187Z,97907.57
2019-05-05T22:56:04.022Z,97909.75
2019-05-05T22:58:29.342Z,97912.92
2019-05-05T23:00:56.120Z,97912.05
2019-05-05T23:03:25.490Z,97912.17
2019-05-05T23:05:54.704Z,97915.16
2019-05-05T23:08:20.623Z,97922.27
2019-05-05T23:10:45.019Z,97911.46
2019-05-05T23:13:09.367Z,97915.54
2019-05-05T23:15:35.251Z,97917.95
2019-05-05T23:18:12.654Z,97914.06
2019-05-05T23:21:01.674Z,97911.30
2019-05-05T23:23:47.826Z,97916.97
2019-05-05T23:26:14.014Z,97921.08
2019-05-05T23:28:38.252Z,97933.05
2019-05-05T23:31:02.263Z,97925.41
2019-05-05T23:33:26.253Z,97926.36
2019-05-05T23:35:50.697Z,97926.24
2019-05-05T23:38:16.241Z,97921.36
2019-05-05T23:40:40.499Z,97915.59
2019-05-05T23:43:04.890Z,97919.56
2019-05-05T23:45:29.243Z,97917.08
2019-05-05T23:47:57.746Z,97914.58
2019-05-05T23:50:23.351Z,97921.53
2019-05-05T23:52:47.386Z,97916.61
2019-05-05T23:55:11.887Z,97919.30
2019-05-05T23:57:35.809Z,97909.02
